Time;durP1;ratioP1;P1;durP2;ratioP2;P2;SDS_P1;SDS_P2;PMS_P1;PMS_P2;Temp;Humidity;BMP_temperature;BMP_pressure;BME280_temperature;BME280_humidity;BME280_pressure;Samples;Min_cycle;Max_cycle;Signal;HPM_P1;HPM_P2
2022/04/01 00:00:36;;;;;;;9.23;7.47;;;4.80;99.90;;;;;;5030821;28;20668;-70
2022/04/01 00:03:03;;;;;;;10.13;8.32;;;4.80;99.90;;;;;;5030941;28;20673;-70
2022/04/01 00:05:30;;;;;;;12.27;8.85;;;4.80;99.90;;;;;;5029848;28;20218;-71
2022/04/01 00:07:56;;;;;;;9.45;7.60;;;4.80;99.90;;;;;;5030204;28;20595;-71
2022/04/01 00:10:23;;;;;;;9.15;6.75;;;4.70;99.90;;;;;;5029764;28;20208;-70
2022/04/01 00:12:50;;;;;;;10.63;8.00;;;4.80;99.90;;;;;;5030606;28;20205;-70
2022/04/01 00:15:17;;;;;;;9.57;7.47;;;4.70;99.90;;;;;;5030123;28;20226;-70
2022/04/01 00:17:45;;;;;;;11.30;8.80;;;4.70;99.90;;;;;;5029660;28;20217;-71
2022/04/01 00:20:14;;;;;;;9.40;8.15;;;4.70;99.90;;;;;;5030702;28;20206;-71
2022/04/01 00:22:41;;;;;;;10.13;7.65;;;4.70;99.90;;;;;;5029849;28;20205;-70
2022/04/01 00:25:08;;;;;;;9.75;7.05;;;4.70;99.90;;;;;;5030092;28;20703;-70
2022/04/01 00:27:35;;;;;;;10.95;7.78;;;4.70;99.90;;;;;;5029413;28;20243;-70
2022/04/01 00:30:03;;;;;;;15.85;9.05;;;4.70;99.90;;;;;;5030389;28;20198;-70
2022/04/01 00:32:30;;;;;;;10.18;8.07;;;4.80;99.90;;;;;;5030095;28;20205;-71
2022/04/01 00:34:58;;;;;;;10.25;7.95;;;4.80;99.90;;;;;;5029628;28;20222;-71
2022/04/01 00:37:25;;;;;;;10.55;7.72;;;4.80;99.90;;;;;;5029611;28;20559;-70
2022/04/01 00:39:52;;;;;;;11.77;8.57;;;4.80;99.90;;;;;;5029954;28;20232;-71
2022/04/01 00:42:19;;;;;;;11.18;7.10;;;4.80;99.90;;;;;;5030182;28;20204;-71
2022/04/01 00:44:45;;;;;;;11.23;8.55;;;4.80;99.90;;;;;;5030203;28;20198;-70
2022/04/01 00:47:15;;;;;;;7.50;6.68;;;4.80;99.90;;;;;;5028241;28;20208;-71
2022/04/01 00:49:43;;;;;;;9.75;8.07;;;4.80;99.90;;;;;;5029901;28;20281;-71
2022/04/01 00:52:12;;;;;;;8.98;8.00;;;4.80;99.90;;;;;;5029334;28;20204;-70
2022/04/01 00:54:40;;;;;;;8.95;7.30;;;4.70;99.90;;;;;;5029354;28;20240;-71
2022/04/01 00:57:10;;;;;;;11.00;8.25;;;4.70;99.90;;;;;;5028820;28;20230;-71
2022/04/01 00:59:37;;;;;;;9.82;7.53;;;4.70;99.90;;;;;;5028954;28;20252;-71
2022/04/01 01:02:05;;;;;;;9.20;7.43;;;4.70;99.90;;;;;;5029502;28;20209;-71
2022/04/01 01:04:32;;;;;;;9.52;7.47;;;4.70;99.90;;;;;;5029414;28;20194;-71
2022/04/01 01:07:01;;;;;;;7.75;6.70;;;4.80;99.90;;;;;;5028437;28;20218;-71
2022/04/01 01:09:29;;;;;;;9.77;7.15;;;4.80;99.90;;;;;;5028985;28;20221;-71
2022/04/01 01:11:55;;;;;;;8.63;7.65;;;4.80;99.90;;;;;;5029268;28;20205;-71
2022/04/01 01:14:28;;;;;;;9.18;6.97;;;4.80;99.90;;;;;;5029418;28;20225;-71
2022/04/01 01:16:56;;;;;;;9.07;6.95;;;4.80;99.90;;;;;;5028175;28;20221;-71
2022/04/01 01:19:23;;;;;;;8.88;7.00;;;4.70;99.90;;;;;;5029373;28;20209;-71
2022/04/01 01:21:54;;;;;;;10.00;7.07;;;4.60;99.90;;;;;;5029772;28;20224;-71
2022/04/01 01:24:30;;;;;;;8.63;6.72;;;4.70;99.90;;;;;;5028791;28;20204;-71
2022/04/01 01:26:57;;;;;;;9.05;7.47;;;4.70;99.90;;;;;;5028645;28;20656;-70
2022/04/01 01:29:26;;;;;;;9.48;6.05;;;4.70;99.90;;;;;;5029430;28;20206;-71
2022/04/01 01:31:55;;;;;;;10.20;7.40;;;4.70;99.90;;;;;;5029354;28;20202;-70
2022/04/01 01:34:22;;;;;;;8.25;7.15;;;4.70;99.90;;;;;;5028593;28;20665;-71
2022/04/01 01:36:49;;;;;;;9.63;7.57;;;4.70;99.90;;;;;;5028223;28;20252;-71
2022/04/01 01:39:16;;;;;;;9.65;7.35;;;4.70;99.90;;;;;;5029242;28;20202;-71
2022/04/01 01:41:45;;;;;;;8.02;6.57;;;4.70;99.90;;;;;;5029347;28;20231;-71
2022/04/01 01:44:12;;;;;;;8.25;7.07;;;4.70;99.90;;;;;;5029628;28;20568;-70
2022/04/01 01:46:39;;;;;;;8.73;7.28;;;4.70;99.90;;;;;;5027660;28;20229;-71
2022/04/01 01:49:07;;;;;;;8.00;7.20;;;4.70;99.90;;;;;;5029309;28;20216;-70
2022/04/01 01:57:17;;;;;;;10.35;8.40;;;4.60;99.90;;;;;;4986277;28;20214;-71
2022/04/01 01:59:45;;;;;;;10.45;9.10;;;4.60;99.90;;;;;;5019373;28;20198;-71
2022/04/01 02:02:12;;;;;;;10.30;7.57;;;4.60;99.90;;;;;;5029074;28;20197;-71
2022/04/01 02:04:41;;;;;;;11.43;9.60;;;4.60;99.90;;;;;;5032934;28;20202;-70
2022/04/01 02:07:09;;;;;;;9.65;8.18;;;4.60;99.90;;;;;;5031927;28;20592;-70
2022/04/01 02:09:36;;;;;;;11.10;9.20;;;4.60;99.90;;;;;;5032562;28;20198;-70
2022/04/01 02:12:04;;;;;;;10.70;8.85;;;4.60;99.90;;;;;;5032713;28;20715;-71
2022/04/01 02:14:33;;;;;;;12.52;9.55;;;4.60;99.90;;;;;;5032494;28;20229;-70
2022/04/01 02:17:00;;;;;;;13.55;10.80;;;4.60;99.90;;;;;;5031654;28;20241;-70
2022/04/01 02:19:26;;;;;;;16.20;11.95;;;4.60;99.90;;;;;;5032499;28;20216;-70
2022/04/01 02:21:54;;;;;;;15.15;11.95;;;4.60;99.90;;;;;;5032799;28;20209;-70
2022/04/01 02:24:22;;;;;;;14.50;11.20;;;4.60;99.90;;;;;;5032015;28;20220;-70
2022/04/01 02:26:49;;;;;;;31.38;20.98;;;4.60;99.90;;;;;;5031512;28;20218;-70
2022/04/01 02:29:18;;;;;;;35.78;24.25;;;4.60;99.90;;;;;;5050450;28;20206;-70
2022/04/01 02:31:48;;;;;;;35.40;25.23;;;4.60;99.90;;;;;;5041584;28;20202;-70
2022/04/01 02:34:15;;;;;;;37.70;25.85;;;4.60;99.90;;;;;;5032469;28;20205;-71
2022/04/01 02:36:42;;;;;;;37.58;25.40;;;4.60;99.90;;;;;;5030890;28;20244;-70
2022/04/01 02:39:08;;;;;;;38.28;25.65;;;4.50;99.90;;;;;;5031989;28;20201;-70
2022/04/01 02:41:35;;;;;;;34.67;25.25;;;4.50;99.90;;;;;;5032105;28;20212;-71
2022/04/01 02:44:12;;;;;;;39.63;26.17;;;4.50;99.90;;;;;;5032303;28;20212;-71
2022/04/01 02:46:40;;;;;;;35.97;24.20;;;4.50;99.90;;;;;;5031051;28;20221;-70
2022/04/01 02:49:10;;;;;;;37.30;24.85;;;4.50;99.90;;;;;;5032550;28;20206;-71
2022/04/01 02:51:39;;;;;;;38.95;24.13;;;4.40;99.90;;;;;;5032722;28;20252;-70
2022/04/01 02:54:07;;;;;;;31.25;22.77;;;4.30;99.90;;;;;;5032480;28;20204;-70
2022/04/01 02:56:35;;;;;;;34.90;24.15;;;4.40;99.90;;;;;;5030755;28;20230;-70
2022/04/01 02:59:03;;;;;;;41.08;24.55;;;4.40;99.90;;;;;;5031756;28;20198;-70
2022/04/01 03:01:30;;;;;;;34.65;23.60;;;4.40;99.90;;;;;;5030877;28;20198;-70
2022/04/01 03:03:58;;;;;;;36.58;24.20;;;4.30;99.90;;;;;;5031827;28;20645;-70
2022/04/01 03:06:26;;;;;;;35.53;23.50;;;4.30;99.90;;;;;;5031170;28;20226;-71
2022/04/01 03:08:53;;;;;;;34.47;21.90;;;4.30;99.90;;;;;;5031177;28;20202;-71
2022/04/01 03:11:20;;;;;;;33.08;23.23;;;4.20;99.90;;;;;;5031771;28;20301;-70
2022/04/01 03:13:46;;;;;;;31.35;22.42;;;4.20;99.90;;;;;;5030622;28;20198;-70
2022/04/01 03:16:13;;;;;;;30.35;20.17;;;4.20;99.90;;;;;;5030680;28;20226;-70
2022/04/01 03:18:41;;;;;;;29.27;19.15;;;4.20;99.90;;;;;;5030910;28;20572;-70
2022/04/01 03:21:09;;;;;;;28.20;20.45;;;4.20;99.90;;;;;;5031457;28;20742;-70
2022/04/01 03:23:40;;;;;;;27.80;18.40;;;4.20;99.90;;;;;;5031095;28;20206;-70
2022/04/01 03:26:07;;;;;;;25.88;17.58;;;4.10;99.90;;;;;;5030483;28;20218;-71
2022/04/01 03:28:34;;;;;;;31.38;19.80;;;4.10;99.90;;;;;;5030549;28;20304;-70
2022/04/01 03:31:03;;;;;;;29.40;18.77;;;4.00;99.90;;;;;;5030993;28;20210;-70
2022/04/01 03:33:30;;;;;;;29.30;18.73;;;4.00;99.90;;;;;;5031251;28;20544;-70
2022/04/01 03:35:57;;;;;;;24.95;17.30;;;4.00;99.90;;;;;;5027219;28;20218;-70
2022/04/01 03:38:24;;;;;;;22.20;14.93;;;4.00;99.90;;;;;;5025495;28;20194;-70
2022/04/01 03:40:53;;;;;;;24.05;15.70;;;4.00;99.90;;;;;;5019682;28;20208;-70
2022/04/01 03:43:22;;;;;;;22.77;15.35;;;4.00;99.90;;;;;;5020491;28;20198;-70
2022/04/01 03:45:50;;;;;;;20.73;15.23;;;4.00;99.90;;;;;;5019067;28;20297;-71
2022/04/01 03:48:25;;;;;;;20.92;15.13;;;4.00;99.90;;;;;;5018063;28;20572;-70
2022/04/01 03:50:55;;;;;;;21.67;14.15;;;4.00;99.90;;;;;;5019051;28;20202;-70
2022/04/01 03:53:26;;;;;;;16.83;12.63;;;4.00;99.90;;;;;;5020031;28;20198;-72
2022/04/01 03:55:56;;;;;;;15.43;11.48;;;4.10;99.90;;;;;;5009596;28;20222;-71
2022/04/01 03:58:27;;;;;;;13.75;10.48;;;4.00;99.90;;;;;;5025987;28;20664;-72
2022/04/01 04:00:54;;;;;;;13.23;10.45;;;4.00;99.90;;;;;;5019572;28;20261;-70
2022/04/01 04:03:21;;;;;;;16.67;11.73;;;4.00;99.90;;;;;;5018646;28;20194;-71
2022/04/01 04:05:49;;;;;;;15.65;10.13;;;4.00;99.90;;;;;;5019038;28;20790;-71
2022/04/01 04:08:19;;;;;;;12.07;9.50;;;3.90;99.90;;;;;;5022570;28;20205;-71
2022/04/01 04:10:47;;;;;;;11.85;8.60;;;3.90;99.90;;;;;;5020378;28;20591;-71
2022/04/01 04:13:16;;;;;;;11.32;9.05;;;3.80;99.90;;;;;;5018888;28;20676;-71
2022/04/01 04:15:49;;;;;;;11.35;7.50;;;3.80;99.90;;;;;;5020171;28;20699;-71
2022/04/01 04:18:17;;;;;;;14.13;9.88;;;3.80;99.90;;;;;;5021633;28;20195;-72
2022/04/01 04:20:55;;;;;;;12.02;8.75;;;3.80;99.90;;;;;;5020011;28;20553;-71
2022/04/01 04:23:31;;;;;;;12.73;9.75;;;3.70;99.90;;;;;;5014786;28;20911;-72
2022/04/01 04:26:01;;;;;;;13.10;9.40;;;3.70;99.90;;;;;;5011475;28;20584;-71
2022/04/01 04:28:35;;;;;;;11.48;9.00;;;3.70;99.90;;;;;;5016029;28;20208;-72
2022/04/01 04:31:07;;;;;;;11.80;9.50;;;3.70;99.90;;;;;;5029834;28;20208;-71
2022/04/01 04:33:34;;;;;;;11.35;8.13;;;3.70;99.90;;;;;;5030175;28;20210;-70
2022/04/01 04:36:04;;;;;;;11.13;8.15;;;3.80;99.90;;;;;;5026497;28;20221;-72
2022/04/01 04:38:37;;;;;;;12.80;8.73;;;3.80;99.90;;;;;;5018952;28;20301;-72
2022/04/01 04:41:08;;;;;;;12.10;9.05;;;3.80;99.90;;;;;;5010874;28;20260;-71
2022/04/01 04:43:41;;;;;;;11.13;8.25;;;3.80;99.90;;;;;;5010401;28;20198;-70
2022/04/01 04:46:09;;;;;;;10.48;8.50;;;3.80;99.90;;;;;;5009578;28;20233;-72
2022/04/01 04:48:38;;;;;;;9.45;7.15;;;3.80;99.90;;;;;;5009707;28;20212;-71
2022/04/01 04:51:05;;;;;;;10.48;8.23;;;3.70;99.90;;;;;;5010367;28;20202;-71
2022/04/01 04:53:34;;;;;;;10.07;8.55;;;3.70;99.90;;;;;;5012261;28;20222;-71
2022/04/01 04:56:02;;;;;;;9.27;7.78;;;3.70;99.90;;;;;;5009206;28;20728;-73
2022/04/01 04:58:32;;;;;;;10.90;7.80;;;3.70;99.90;;;;;;5008701;28;20203;-73
2022/04/01 05:01:04;;;;;;;12.00;8.05;;;3.70;99.90;;;;;;5009836;28;20604;-72
2022/04/01 05:03:58;;;;;;;10.15;8.13;;;3.70;99.90;;;;;;5009158;28;20207;-73
2022/04/01 05:06:30;;;;;;;11.63;7.85;;;3.70;99.90;;;;;;5008744;28;20218;-72
2022/04/01 05:09:01;;;;;;;9.65;8.00;;;3.60;99.90;;;;;;5009820;28;20199;-71
2022/04/01 05:11:42;;;;;;;10.55;7.40;;;3.60;99.90;;;;;;5010243;28;20237;-71
2022/04/01 05:14:22;;;;;;;10.65;7.88;;;3.60;99.90;;;;;;5009724;28;20234;-69
2022/04/01 05:16:54;;;;;;;9.57;7.93;;;3.60;99.90;;;;;;5009403;28;20229;-70
2022/04/01 05:19:26;;;;;;;11.00;8.30;;;3.50;99.90;;;;;;5010519;28;20737;-71
2022/04/01 05:22:01;;;;;;;8.52;6.40;;;3.50;99.90;;;;;;5010443;28;20205;-71
2022/04/01 05:24:33;;;;;;;10.70;8.13;;;3.40;99.90;;;;;;5010385;28;20247;-71
2022/04/01 05:27:05;;;;;;;8.88;6.97;;;3.40;99.90;;;;;;5008800;28;20218;-71
2022/04/01 05:29:37;;;;;;;9.50;7.40;;;3.40;99.90;;;;;;5009865;28;20305;-70
2022/04/01 05:32:07;;;;;;;8.25;6.82;;;3.30;99.90;;;;;;5010829;28;20587;-71
2022/04/01 05:34:39;;;;;;;9.23;7.40;;;3.30;99.90;;;;;;5010398;28;20261;-71
2022/04/01 05:37:07;;;;;;;10.48;7.15;;;3.30;99.90;;;;;;5010736;28;20222;-71
2022/04/01 05:39:37;;;;;;;8.32;7.30;;;3.20;99.90;;;;;;5013534;28;20209;-75
2022/04/01 05:42:07;;;;;;;10.15;7.85;;;3.30;99.90;;;;;;5014127;28;20206;-73
2022/04/01 05:44:34;;;;;;;9.98;7.20;;;3.20;99.90;;;;;;5013098;28;20823;-74
2022/04/01 05:47:01;;;;;;;8.93;7.03;;;3.20;99.90;;;;;;5012687;28;20318;-74
2022/04/01 05:49:30;;;;;;;11.65;8.18;;;3.20;99.90;;;;;;5013335;28;20300;-74
2022/04/01 05:51:58;;;;;;;9.27;7.07;;;3.20;99.90;;;;;;5012733;28;20674;-75
2022/04/01 05:54:26;;;;;;;11.05;7.85;;;3.30;99.90;;;;;;5013168;28;20241;-74
2022/04/01 05:56:54;;;;;;;9.63;8.05;;;3.30;99.90;;;;;;5012237;28;20226;-74
2022/04/01 05:59:22;;;;;;;8.73;7.38;;;3.30;99.90;;;;;;5013832;28;20214;-72
2022/04/01 06:02:06;;;;;;;11.35;8.38;;;3.20;99.90;;;;;;5016081;28;20202;-72
2022/04/01 06:05:03;;;;;;;8.55;7.50;;;3.20;99.90;;;;;;5013214;28;20670;-72
2022/04/01 06:07:37;;;;;;;11.05;8.13;;;3.20;99.90;;;;;;5010286;28;20741;-74
2022/04/01 06:10:09;;;;;;;10.30;8.30;;;3.20;99.90;;;;;;5013150;28;20194;-76
2022/04/01 06:12:45;;;;;;;9.73;7.18;;;3.20;99.90;;;;;;5013063;28;20207;-72
2022/04/01 06:15:18;;;;;;;11.50;8.02;;;3.20;99.90;;;;;;5012322;28;20702;-71
2022/04/01 06:17:57;;;;;;;11.68;8.70;;;3.20;99.90;;;;;;5012519;28;20195;-73
2022/04/01 06:20:26;;;;;;;12.05;8.50;;;3.20;99.90;;;;;;5012521;28;20202;-73
2022/04/01 06:22:59;;;;;;;10.77;9.43;;;3.20;99.90;;;;;;5013400;28;20228;-75
2022/04/01 06:25:31;;;;;;;10.23;8.55;;;3.20;99.90;;;;;;5012049;28;20227;-73
2022/04/01 06:28:14;;;;;;;10.70;8.88;;;3.20;99.90;;;;;;5010922;28;20194;-71
2022/04/01 06:30:43;;;;;;;13.80;10.02;;;3.20;99.90;;;;;;5032519;28;20202;-71
2022/04/01 06:33:20;;;;;;;13.40;9.98;;;3.10;99.90;;;;;;5032920;28;20205;-71
2022/04/01 06:35:56;;;;;;;12.77;10.13;;;3.10;99.90;;;;;;5032280;28;20550;-71
2022/04/01 06:38:33;;;;;;;11.98;9.73;;;3.20;99.90;;;;;;5032834;28;20255;-69
2022/04/01 06:41:04;;;;;;;10.80;8.88;;;3.20;99.90;;;;;;5032426;28;20213;-73
2022/04/01 06:43:31;;;;;;;13.77;10.23;;;3.20;99.90;;;;;;5032101;28;20677;-76
2022/04/01 06:45:58;;;;;;;14.82;11.13;;;3.10;99.90;;;;;;5032002;28;20249;-74
2022/04/01 06:48:25;;;;;;;13.15;10.48;;;3.10;99.90;;;;;;5031028;28;20641;-74
2022/04/01 06:50:54;;;;;;;14.10;9.90;;;3.10;99.90;;;;;;5032573;28;20624;-74
2022/04/01 06:53:21;;;;;;;12.95;11.15;;;3.10;99.90;;;;;;5031922;28;20545;-74
2022/04/01 06:55:49;;;;;;;16.52;12.35;;;3.10;99.90;;;;;;5031982;28;20249;-72
2022/04/01 06:58:16;;;;;;;15.13;11.38;;;3.10;99.90;;;;;;5031819;28;20212;-72
2022/04/01 07:00:44;;;;;;;15.52;12.00;;;3.10;99.90;;;;;;5032336;28;20202;-74
2022/04/01 07:03:11;;;;;;;15.20;11.68;;;3.10;99.90;;;;;;5032503;28;20635;-71
2022/04/01 07:05:39;;;;;;;13.35;11.77;;;3.10;99.90;;;;;;5031514;28;20776;-73
2022/04/01 07:08:09;;;;;;;14.35;11.57;;;3.10;99.90;;;;;;5031929;28;20201;-75
2022/04/01 07:10:36;;;;;;;14.63;12.13;;;3.10;99.90;;;;;;5032375;28;20212;-73
2022/04/01 07:13:02;;;;;;;14.45;11.05;;;3.10;99.90;;;;;;5032162;28;20230;-74
2022/04/01 07:15:29;;;;;;;16.02;12.40;;;3.10;99.90;;;;;;5031412;28;20758;-75
2022/04/01 07:17:56;;;;;;;15.07;12.02;;;3.10;99.90;;;;;;5031519;28;20221;-73
2022/04/01 07:20:22;;;;;;;12.88;10.88;;;3.10;99.90;;;;;;5031661;28;20676;-71
2022/04/01 07:22:51;;;;;;;14.00;11.75;;;3.20;99.90;;;;;;5032216;28;20205;-72
2022/04/01 07:25:19;;;;;;;11.48;10.23;;;3.20;99.90;;;;;;5031709;28;20217;-71
2022/04/01 07:27:46;;;;;;;13.02;10.57;;;3.20;99.90;;;;;;5031127;28;20661;-73
2022/04/01 07:30:13;;;;;;;12.68;11.02;;;3.20;99.90;;;;;;5025496;28;20292;-71
2022/04/01 07:32:40;;;;;;;13.63;10.68;;;3.20;99.90;;;;;;5027102;28;20637;-73
2022/04/01 07:35:11;;;;;;;14.18;11.13;;;3.20;99.90;;;;;;5027196;28;20672;-72
2022/04/01 07:37:38;;;;;;;13.73;10.57;;;3.30;99.90;;;;;;5026544;28;20221;-73
2022/04/01 07:40:06;;;;;;;13.85;10.60;;;3.20;99.90;;;;;;5027498;28;20596;-72
2022/04/01 07:42:35;;;;;;;12.32;10.55;;;3.20;99.90;;;;;;5028191;28;20225;-72
2022/04/01 07:45:02;;;;;;;13.27;10.32;;;3.10;99.90;;;;;;5028900;28;20210;-73
2022/04/01 07:47:29;;;;;;;13.90;10.23;;;3.10;99.90;;;;;;5029526;28;20204;-74
2022/04/01 07:49:56;;;;;;;13.85;10.23;;;3.20;99.90;;;;;;5031131;28;20237;-73
2022/04/01 07:52:23;;;;;;;13.65;9.20;;;3.20;99.90;;;;;;5031455;28;20551;-72
2022/04/01 07:54:51;;;;;;;11.68;9.25;;;3.20;99.90;;;;;;5030681;28;20597;-73
2022/04/01 07:57:19;;;;;;;12.05;9.18;;;3.30;99.90;;;;;;5029619;28;20218;-71
2022/04/01 07:59:47;;;;;;;11.10;8.63;;;3.20;99.90;;;;;;5031255;28;20661;-72
2022/04/01 08:02:15;;;;;;;12.02;10.32;;;3.30;99.90;;;;;;5032528;28;20947;-73
2022/04/01 08:04:41;;;;;;;11.55;9.23;;;3.30;99.90;;;;;;5033128;28;20229;-74
2022/04/01 08:07:08;;;;;;;12.70;10.85;;;3.30;99.90;;;;;;5029898;28;20226;-74
2022/04/01 08:09:35;;;;;;;13.25;10.82;;;3.30;99.90;;;;;;5031088;28;20208;-75
2022/04/01 08:12:03;;;;;;;13.65;10.32;;;3.30;99.90;;;;;;5030517;28;20205;-75
2022/04/01 08:14:30;;;;;;;13.57;10.73;;;3.30;99.90;;;;;;5030819;28;20206;-75
2022/04/01 08:16:58;;;;;;;13.60;11.10;;;3.30;99.90;;;;;;5029149;28;20303;-75
2022/04/01 08:19:25;;;;;;;13.27;11.02;;;3.40;99.90;;;;;;5030548;28;20202;-73
2022/04/01 08:21:52;;;;;;;13.23;11.23;;;3.40;99.90;;;;;;5030628;28;20202;-74
2022/04/01 08:24:19;;;;;;;13.23;11.23;;;3.50;99.90;;;;;;5030676;28;20206;-73
2022/04/01 08:26:47;;;;;;;14.23;11.18;;;3.50;99.90;;;;;;5029065;28;20316;-74
2022/04/01 08:29:14;;;;;;;14.85;11.07;;;3.50;99.90;;;;;;5030014;28;20205;-73
2022/04/01 08:31:41;;;;;;;13.88;11.27;;;3.50;99.90;;;;;;5030490;28;20206;-74
2022/04/01 08:34:10;;;;;;;15.60;11.55;;;3.40;99.90;;;;;;5029824;28;20209;-71
2022/04/01 08:36:37;;;;;;;15.68;11.65;;;3.40;99.90;;;;;;5030506;28;20225;-72
2022/04/01 08:39:04;;;;;;;14.25;10.80;;;3.40;99.90;;;;;;5030520;28;20888;-73
2022/04/01 08:41:31;;;;;;;13.43;10.55;;;3.40;99.90;;;;;;5029747;28;20210;-74
2022/04/01 08:43:58;;;;;;;14.68;11.60;;;3.50;99.90;;;;;;5030399;28;20205;-75
2022/04/01 08:46:25;;;;;;;13.88;11.23;;;3.60;99.90;;;;;;5031200;28;20712;-73
2022/04/01 08:48:52;;;;;;;12.20;10.50;;;3.60;99.90;;;;;;5029721;28;20224;-76
2022/04/01 08:51:21;;;;;;;15.07;11.23;;;3.60;99.90;;;;;;5059461;22;20225;-71
2022/04/01 08:53:48;;;;;;;13.80;10.25;;;3.50;99.90;;;;;;5050559;28;20197;-71
2022/04/01 08:56:18;;;;;;;13.20;11.32;;;3.60;99.90;;;;;;5049797;28;20732;-72
2022/04/01 08:58:45;;;;;;;13.13;10.23;;;3.60;99.90;;;;;;5050123;28;20204;-73
2022/04/01 09:01:13;;;;;;;12.48;10.60;;;3.60;99.90;;;;;;5050725;28;20700;-72
2022/04/01 09:03:41;;;;;;;13.88;10.13;;;3.50;99.90;;;;;;5050095;28;20572;-71
2022/04/01 09:06:08;;;;;;;11.10;9.30;;;3.50;99.90;;;;;;5050004;28;20224;-70
2022/04/01 09:08:38;;;;;;;10.88;9.25;;;3.50;99.90;;;;;;5049678;28;20205;-72
2022/04/01 09:11:07;;;;;;;10.90;9.52;;;3.60;99.90;;;;;;5050144;28;20208;-71
2022/04/01 09:13:35;;;;;;;14.45;10.98;;;3.60;99.90;;;;;;5048242;28;20288;-70
2022/04/01 09:16:03;;;;;;;13.68;10.57;;;3.50;99.90;;;;;;5049441;28;20243;-69
2022/04/01 09:18:37;;;;;;;12.35;9.95;;;3.50;99.90;;;;;;5048934;28;20220;-68
2022/04/01 09:21:04;;;;;;;10.60;8.85;;;3.50;99.90;;;;;;5049853;28;20551;-71
2022/04/01 09:23:31;;;;;;;14.38;10.55;;;3.40;99.90;;;;;;5049886;28;20208;-70
2022/04/01 09:26:00;;;;;;;13.80;10.27;;;3.40;99.90;;;;;;5049168;28;20335;-69
2022/04/01 09:28:29;;;;;;;11.60;9.32;;;3.50;99.90;;;;;;5049385;28;20208;-71
2022/04/01 09:31:01;;;;;;;10.23;9.02;;;3.40;99.90;;;;;;5049029;28;20211;-71
2022/04/01 09:33:35;;;;;;;12.35;9.15;;;3.40;99.90;;;;;;5049311;28;20213;-71
2022/04/01 09:36:06;;;;;;;10.55;7.90;;;3.50;99.90;;;;;;5049211;28;20248;-72
2022/04/01 09:38:34;;;;;;;11.02;8.88;;;3.50;99.90;;;;;;5048561;28;20224;-69
2022/04/01 09:41:04;;;;;;;11.70;8.43;;;3.60;99.90;;;;;;5049539;28;20205;-68
2022/04/01 09:43:37;;;;;;;11.20;9.30;;;3.60;99.90;;;;;;5049128;28;20577;-69
2022/04/01 09:46:06;;;;;;;11.07;8.73;;;3.70;99.90;;;;;;5049252;28;20309;-69
2022/04/01 09:48:41;;;;;;;10.55;8.82;;;3.70;99.90;;;;;;5049298;28;20193;-69
2022/04/01 09:51:11;;;;;;;10.55;7.30;;;3.60;99.90;;;;;;5049905;28;20227;-69
2022/04/01 09:53:38;;;;;;;9.70;7.93;;;3.60;99.90;;;;;;5049297;28;20212;-69
2022/04/01 09:56:06;;;;;;;9.40;7.93;;;3.70;99.90;;;;;;5048794;28;20624;-68
2022/04/01 09:58:33;;;;;;;9.07;7.10;;;3.70;99.90;;;;;;5048760;28;20657;-69
2022/04/01 10:01:01;;;;;;;9.07;7.75;;;3.70;99.90;;;;;;5049506;28;20208;-69
2022/04/01 10:03:28;;;;;;;9.10;7.78;;;3.60;99.90;;;;;;5049256;28;20205;-69
2022/04/01 10:05:56;;;;;;;7.35;6.57;;;3.60;99.90;;;;;;5048736;28;20697;-72
2022/04/01 10:08:26;;;;;;;9.65;7.00;;;3.60;99.90;;;;;;5048784;28;20204;-72
2022/04/01 10:10:54;;;;;;;8.77;7.50;;;3.60;99.90;;;;;;5049579;28;20201;-72
2022/04/01 10:13:26;;;;;;;7.93;6.93;;;3.60;99.90;;;;;;5049353;28;20673;-68
2022/04/01 10:15:54;;;;;;;7.90;7.10;;;3.60;99.90;;;;;;5048465;28;20225;-68
2022/04/01 10:18:22;;;;;;;8.20;6.93;;;3.60;99.90;;;;;;5048840;28;20221;-68
2022/04/01 10:20:53;;;;;;;8.27;7.20;;;3.60;99.90;;;;;;5049551;28;20205;-68
2022/04/01 10:23:21;;;;;;;8.30;7.15;;;3.60;99.90;;;;;;5049155;28;20209;-68
2022/04/01 10:25:52;;;;;;;8.70;7.25;;;3.70;99.90;;;;;;5052000;28;20252;-68
2022/04/01 10:28:22;;;;;;;7.72;6.25;;;3.70;99.90;;;;;;5052116;28;20247;-68
2022/04/01 10:30:53;;;;;;;7.65;6.65;;;3.70;99.90;;;;;;5052416;28;20216;-68
2022/04/01 10:33:25;;;;;;;6.60;6.00;;;3.60;99.90;;;;;;5051660;28;20676;-68
2022/04/01 10:35:54;;;;;;;6.72;5.57;;;3.60;99.90;;;;;;5051649;28;20783;-67
2022/04/01 10:38:25;;;;;;;7.22;6.30;;;3.60;99.90;;;;;;5051631;28;20224;-69
2022/04/01 10:40:53;;;;;;;6.47;5.80;;;3.70;99.90;;;;;;5052114;28;20244;-68
2022/04/01 10:43:23;;;;;;;8.40;6.72;;;3.70;99.90;;;;;;5052217;28;20209;-68
2022/04/01 10:46:01;;;;;;;6.85;6.07;;;3.70;99.90;;;;;;5051270;28;20217;-68
2022/04/01 10:54:01;;;;;;;6.63;5.93;;;3.70;99.90;;;;;;5051945;28;20204;-68
2022/04/01 10:56:33;;;;;;;6.65;6.05;;;3.70;99.90;;;;;;5051266;28;20260;-68
2022/04/01 10:59:15;;;;;;;7.13;5.80;;;3.60;99.90;;;;;;5051742;28;20543;-67
2022/04/01 11:02:02;;;;;;;6.78;5.43;;;3.70;99.90;;;;;;5051465;28;20201;-68
2022/04/01 11:04:31;;;;;;;7.00;4.80;;;3.70;99.90;;;;;;5052047;28;20212;-68
2022/04/01 11:07:00;;;;;;;5.32;4.50;;;3.70;99.90;;;;;;5051092;28;20267;-68
2022/04/01 11:09:45;;;;;;;6.25;5.03;;;3.60;99.90;;;;;;5051233;28;20200;-68
2022/04/01 11:12:50;;;;;;;4.80;4.30;;;3.60;99.90;;;;;;5051897;28;20212;-68
2022/04/01 11:15:29;;;;;;;6.00;4.95;;;3.50;99.90;;;;;;5051382;28;20304;-72
2022/04/01 11:18:09;;;;;;;5.30;4.75;;;3.50;99.90;;;;;;5048586;28;20212;-72
2022/04/01 11:20:39;;;;;;;4.40;3.65;;;3.40;99.90;;;;;;5049044;28;20535;-72
2022/04/01 11:23:15;;;;;;;3.65;3.20;;;3.40;99.90;;;;;;5051713;28;20586;-72
2022/04/01 11:25:57;;;;;;;4.20;3.60;;;3.30;99.90;;;;;;5051566;28;20754;-72
2022/04/01 11:28:26;;;;;;;4.00;3.00;;;3.30;99.90;;;;;;5050816;28;20712;-70
2022/04/01 11:31:11;;;;;;;3.30;3.00;;;3.40;99.90;;;;;;5052161;28;20293;-71
2022/04/01 11:33:38;;;;;;;3.38;3.08;;;3.40;99.90;;;;;;5052251;28;20209;-70
2022/04/01 11:36:07;;;;;;;2.60;2.40;;;3.30;99.90;;;;;;5052071;28;20585;-69
2022/04/01 11:38:34;;;;;;;3.45;3.00;;;3.20;99.90;;;;;;5051669;28;20217;-70
2022/04/01 11:41:03;;;;;;;3.78;2.25;;;3.30;99.90;;;;;;5052957;28;20208;-71
2022/04/01 11:43:33;;;;;;;2.10;2.00;;;3.30;99.90;;;;;;5052269;28;20201;-70
2022/04/01 11:46:03;;;;;;;2.42;2.20;;;3.50;99.90;;;;;;5052215;28;20283;-69
2022/04/01 11:48:33;;;;;;;2.33;2.10;;;3.50;99.90;;;;;;5051688;28;20606;-71
2022/04/01 11:51:01;;;;;;;2.20;2.00;;;3.50;99.90;;;;;;5051902;28;20216;-68
2022/04/01 11:53:32;;;;;;;2.13;1.88;;;3.60;99.90;;;;;;5051965;28;20255;-71
2022/04/01 11:55:59;;;;;;;2.05;1.85;;;3.60;99.90;;;;;;5051736;28;20563;-70
2022/04/01 11:58:28;;;;;;;3.10;2.20;;;3.70;99.90;;;;;;5051613;28;20221;-70
2022/04/01 12:00:54;;;;;;;2.03;1.92;;;3.70;99.90;;;;;;5051812;28;20621;-71
2022/04/01 12:03:24;;;;;;;1.92;1.83;;;3.80;99.90;;;;;;5052022;28;20208;-70
2022/04/01 12:08:41;;;;;;;2.20;1.95;;;3.70;99.90;;;;;;5051392;28;20259;-70
2022/04/01 12:08:41;;;;;;;2.95;2.28;;;3.80;99.90;;;;;;5051089;28;20684;-70
2022/04/01 12:11:09;;;;;;;2.28;2.00;;;3.70;99.90;;;;;;5051604;28;20197;-71
2022/04/01 12:13:41;;;;;;;2.00;1.90;;;3.70;99.90;;;;;;5051556;28;20223;-70
2022/04/01 12:16:08;;;;;;;1.95;1.85;;;3.70;99.90;;;;;;5051433;28;20689;-69
2022/04/01 12:18:36;;;;;;;2.40;2.05;;;3.70;99.90;;;;;;5050700;28;20320;-70
2022/04/01 12:21:04;;;;;;;2.55;2.35;;;3.60;99.90;;;;;;5051436;28;20292;-71
2022/04/01 12:23:33;;;;;;;2.35;2.15;;;3.60;99.90;;;;;;5051422;28;20276;-69
2022/04/01 12:26:01;;;;;;;2.75;2.55;;;3.60;99.90;;;;;;5051682;28;20311;-70
2022/04/01 12:28:36;;;;;;;2.90;2.60;;;3.70;99.90;;;;;;5050801;28;20255;-69
2022/04/01 12:31:03;;;;;;;3.17;2.90;;;3.70;99.90;;;;;;5051240;28;20197;-69
2022/04/01 12:33:32;;;;;;;3.67;2.53;;;3.80;99.90;;;;;;5050770;28;20208;-69
2022/04/01 12:36:01;;;;;;;3.00;2.80;;;3.80;99.90;;;;;;5050657;28;20225;-70
2022/04/01 12:38:31;;;;;;;2.95;2.75;;;3.90;99.90;;;;;;5050136;28;20232;-73
2022/04/01 12:41:00;;;;;;;2.67;2.47;;;3.80;99.90;;;;;;5050912;28;20290;-69
2022/04/01 12:43:32;;;;;;;3.35;3.05;;;3.80;99.90;;;;;;5050907;28;20200;-69
2022/04/01 12:46:00;;;;;;;3.40;3.20;;;3.80;99.90;;;;;;5050482;28;20727;-73
2022/04/01 12:48:28;;;;;;;3.90;3.60;;;3.80;99.90;;;;;;5048825;28;20205;-72
2022/04/01 12:50:58;;;;;;;4.53;4.13;;;3.80;99.90;;;;;;5049543;28;20762;-70
2022/04/01 12:53:24;;;;;;;5.30;4.80;;;3.90;99.90;;;;;;5049980;28;20201;-70
2022/04/01 12:55:53;;;;;;;4.57;4.18;;;3.90;99.90;;;;;;5049642;28;20225;-69
2022/04/01 12:58:22;;;;;;;4.40;4.00;;;3.90;99.90;;;;;;5049640;28;20229;-70
2022/04/01 13:00:49;;;;;;;6.18;4.85;;;3.80;99.90;;;;;;5050279;28;20303;-70
2022/04/01 13:03:16;;;;;;;5.00;4.50;;;3.70;99.90;;;;;;5050200;28;20212;-69
2022/04/01 13:05:43;;;;;;;4.57;4.18;;;3.80;99.90;;;;;;5050050;28;20224;-70
2022/04/01 13:08:12;;;;;;;4.63;3.95;;;3.80;99.90;;;;;;5050095;28;20193;-70
2022/04/01 13:10:39;;;;;;;4.05;3.70;;;3.70;99.90;;;;;;5049694;28;20354;-69